<?xml version="1.0" encoding="UTF-8" standalone="no" ?>
<gpx xmlns="http://www.topografix.com/GPX/1/1" xmlns:xsi="http://www.w3.org/2001/XMLSchema-instance" xsi:schemaLocation="http://www.topografix.com/GPX/1/1 http://www.topografix.com/GPX/1/1/gpx.xsd" version="1.1" creator="VisuGPX - https://www.visugpx.com">
  <metadata>
    <name>35 RIQUEVAL - Les Barbacanes</name>
    <desc><![CDATA[Départ parking derrière le musée de Riqueval.]]></desc>
  </metadata>
  <wpt lat="49.95141" lon="3.23508">
    <ele>106.5</ele>
    <name><![CDATA[RIQUEVAL - Les Barbacanes]]></name>
    <type><![CDATA[Generic]]></type>
  </wpt>
  <trk>
    <name><![CDATA[RIQUEVAL - Les Barbacanes]]></name>
    <extensions>
      <line xmlns="http://www.topografix.com/GPX/gpx_style/0/2">
        <color>0000FF</color>
        <width>4</width>
      </line>
    </extensions>
    <trkseg>
      <trkpt lat="49.95141" lon="3.23508">
        <ele>106.5</ele>
        <time>2020-06-13T21:55:43Z</time>
      </trkpt>
      <trkpt lat="49.9514" lon="3.23478">
        <ele>105.8</ele>
        <time>2020-06-13T21:55:53Z</time>
      </trkpt>
      <trkpt lat="49.95094" lon="3.23469">
        <ele>106.1</ele>
        <time>2020-06-13T21:56:10Z</time>
      </trkpt>
      <trkpt lat="49.95082" lon="3.23488">
        <ele>106.7</ele>
        <time>2020-06-13T21:56:14Z</time>
      </trkpt>
      <trkpt lat="49.95078" lon="3.235">
        <ele>107.1</ele>
        <time>2020-06-13T21:56:22Z</time>
      </trkpt>
      <trkpt lat="49.9505" lon="3.2351">
        <ele>107.1</ele>
        <time>2020-06-13T21:56:36Z</time>
      </trkpt>
      <trkpt lat="49.95026" lon="3.23523">
        <ele>106.5</ele>
        <time>2020-06-13T21:56:56Z</time>
      </trkpt>
      <trkpt lat="49.95011" lon="3.23533">
        <ele>105.8</ele>
        <time>2020-06-13T21:57:05Z</time>
      </trkpt>
      <trkpt lat="49.94984" lon="3.23544">
        <ele>105.1</ele>
        <time>2020-06-13T21:57:14Z</time>
      </trkpt>
      <trkpt lat="49.94963" lon="3.23552">
        <ele>104.9</ele>
        <time>2020-06-13T21:57:22Z</time>
      </trkpt>
      <trkpt lat="49.94952" lon="3.23555">
        <ele>105</ele>
        <time>2020-06-13T21:57:32Z</time>
      </trkpt>
      <trkpt lat="49.94944" lon="3.23566">
        <ele>104.7</ele>
        <time>2020-06-13T21:57:47Z</time>
      </trkpt>
      <trkpt lat="49.94933" lon="3.23578">
        <ele>104.6</ele>
        <time>2020-06-13T21:58:03Z</time>
      </trkpt>
      <trkpt lat="49.94907" lon="3.23598">
        <ele>104.4</ele>
        <time>2020-06-13T21:58:14Z</time>
      </trkpt>
      <trkpt lat="49.94879" lon="3.23621">
        <ele>104.7</ele>
        <time>2020-06-13T21:58:24Z</time>
      </trkpt>
      <trkpt lat="49.94854" lon="3.23637">
        <ele>105.8</ele>
        <time>2020-06-13T21:58:31Z</time>
      </trkpt>
      <trkpt lat="49.94828" lon="3.23659">
        <ele>107.1</ele>
        <time>2020-06-13T21:58:38Z</time>
      </trkpt>
      <trkpt lat="49.94799" lon="3.23683">
        <ele>106.5</ele>
        <time>2020-06-13T21:58:45Z</time>
      </trkpt>
      <trkpt lat="49.94777" lon="3.23698">
        <ele>106.2</ele>
        <time>2020-06-13T21:59:03Z</time>
      </trkpt>
      <trkpt lat="49.94763" lon="3.23711">
        <ele>106</ele>
        <time>2020-06-13T21:59:11Z</time>
      </trkpt>
      <trkpt lat="49.94752" lon="3.23725">
        <ele>105.8</ele>
        <time>2020-06-13T21:59:30Z</time>
      </trkpt>
      <trkpt lat="49.9474" lon="3.23728">
        <ele>106.4</ele>
        <time>2020-06-13T21:59:37Z</time>
      </trkpt>
      <trkpt lat="49.94723" lon="3.23743">
        <ele>107.4</ele>
        <time>2020-06-13T21:59:45Z</time>
      </trkpt>
      <trkpt lat="49.94704" lon="3.23755">
        <ele>108.4</ele>
        <time>2020-06-13T21:59:56Z</time>
      </trkpt>
      <trkpt lat="49.94687" lon="3.23768">
        <ele>108.7</ele>
        <time>2020-06-13T22:00:15Z</time>
      </trkpt>
      <trkpt lat="49.9467" lon="3.23782">
        <ele>108.7</ele>
        <time>2020-06-13T22:00:29Z</time>
      </trkpt>
      <trkpt lat="49.94655" lon="3.23796">
        <ele>107.7</ele>
        <time>2020-06-13T22:00:37Z</time>
      </trkpt>
      <trkpt lat="49.94634" lon="3.23812">
        <ele>106.7</ele>
        <time>2020-06-13T22:00:56Z</time>
      </trkpt>
      <trkpt lat="49.94615" lon="3.23825">
        <ele>106.3</ele>
        <time>2020-06-13T22:01:12Z</time>
      </trkpt>
      <trkpt lat="49.94606" lon="3.23827">
        <ele>106.5</ele>
        <time>2020-06-13T22:01:30Z</time>
      </trkpt>
      <trkpt lat="49.94595" lon="3.23832">
        <ele>106.7</ele>
        <time>2020-06-13T22:01:34Z</time>
      </trkpt>
      <trkpt lat="49.94586" lon="3.23833">
        <ele>106.9</ele>
        <time>2020-06-13T22:01:38Z</time>
      </trkpt>
      <trkpt lat="49.94573" lon="3.23825">
        <ele>107.5</ele>
        <time>2020-06-13T22:01:56Z</time>
      </trkpt>
      <trkpt lat="49.94559" lon="3.23829">
        <ele>107.7</ele>
        <time>2020-06-13T22:02:00Z</time>
      </trkpt>
      <trkpt lat="49.94541" lon="3.23835">
        <ele>107.9</ele>
        <time>2020-06-13T22:02:11Z</time>
      </trkpt>
      <trkpt lat="49.94525" lon="3.23838">
        <ele>108</ele>
        <time>2020-06-13T22:02:14Z</time>
      </trkpt>
      <trkpt lat="49.94498" lon="3.2385">
        <ele>107.3</ele>
        <time>2020-06-13T22:02:23Z</time>
      </trkpt>
      <trkpt lat="49.94465" lon="3.23854">
        <ele>105.2</ele>
        <time>2020-06-13T22:02:27Z</time>
      </trkpt>
      <trkpt lat="49.94438" lon="3.23859">
        <ele>103.5</ele>
        <time>2020-06-13T22:02:35Z</time>
      </trkpt>
      <trkpt lat="49.94412" lon="3.23863">
        <ele>102.2</ele>
        <time>2020-06-13T22:02:39Z</time>
      </trkpt>
      <trkpt lat="49.94391" lon="3.23867">
        <ele>101.7</ele>
        <time>2020-06-13T22:02:41Z</time>
      </trkpt>
      <trkpt lat="49.94343" lon="3.23874">
        <ele>100.7</ele>
        <time>2020-06-13T22:02:53Z</time>
      </trkpt>
      <trkpt lat="49.94307" lon="3.23881">
        <ele>100</ele>
        <time>2020-06-13T22:02:55Z</time>
      </trkpt>
      <trkpt lat="49.94285" lon="3.23885">
        <ele>99.8</ele>
        <time>2020-06-13T22:03:11Z</time>
      </trkpt>
      <trkpt lat="49.94253" lon="3.23898">
        <ele>99.4</ele>
        <time>2020-06-13T22:03:15Z</time>
      </trkpt>
      <trkpt lat="49.94224" lon="3.23912">
        <ele>99.7</ele>
        <time>2020-06-13T22:03:20Z</time>
      </trkpt>
      <trkpt lat="49.94187" lon="3.2393">
        <ele>100.4</ele>
        <time>2020-06-13T22:03:30Z</time>
      </trkpt>
      <trkpt lat="49.94157" lon="3.23949">
        <ele>100</ele>
        <time>2020-06-13T22:03:33Z</time>
      </trkpt>
      <trkpt lat="49.9413" lon="3.23974">
        <ele>99.1</ele>
        <time>2020-06-13T22:03:40Z</time>
      </trkpt>
      <trkpt lat="49.94111" lon="3.23992">
        <ele>98.5</ele>
        <time>2020-06-13T22:03:51Z</time>
      </trkpt>
      <trkpt lat="49.94055" lon="3.24062">
        <ele>99.1</ele>
        <time>2020-06-13T22:04:04Z</time>
      </trkpt>
      <trkpt lat="49.94032" lon="3.24092">
        <ele>99.5</ele>
        <time>2020-06-13T22:04:12Z</time>
      </trkpt>
      <trkpt lat="49.94007" lon="3.24137">
        <ele>98.7</ele>
        <time>2020-06-13T22:04:27Z</time>
      </trkpt>
      <trkpt lat="49.93978" lon="3.24185">
        <ele>99.6</ele>
        <time>2020-06-13T22:04:42Z</time>
      </trkpt>
      <trkpt lat="49.93943" lon="3.24135">
        <ele>104.6</ele>
        <time>2020-06-13T22:04:55Z</time>
      </trkpt>
      <trkpt lat="49.93883" lon="3.24033">
        <ele>104.7</ele>
        <time>2020-06-13T22:05:09Z</time>
      </trkpt>
      <trkpt lat="49.93839" lon="3.23959">
        <ele>103.5</ele>
        <time>2020-06-13T22:05:28Z</time>
      </trkpt>
      <trkpt lat="49.93795" lon="3.23873">
        <ele>99.7</ele>
        <time>2020-06-13T22:05:33Z</time>
      </trkpt>
      <trkpt lat="49.93749" lon="3.23796">
        <ele>96.5</ele>
        <time>2020-06-13T22:05:49Z</time>
      </trkpt>
      <trkpt lat="49.93713" lon="3.2371">
        <ele>97.1</ele>
        <time>2020-06-13T22:06:07Z</time>
      </trkpt>
      <trkpt lat="49.937" lon="3.23678">
        <ele>98.1</ele>
        <time>2020-06-13T22:06:16Z</time>
      </trkpt>
      <trkpt lat="49.93661" lon="3.23624">
        <ele>99.3</ele>
        <time>2020-06-13T22:06:20Z</time>
      </trkpt>
      <trkpt lat="49.93623" lon="3.2358">
        <ele>100</ele>
        <time>2020-06-13T22:06:29Z</time>
      </trkpt>
      <trkpt lat="49.9358" lon="3.23542">
        <ele>100.7</ele>
        <time>2020-06-13T22:06:46Z</time>
      </trkpt>
      <trkpt lat="49.93549" lon="3.23502">
        <ele>101.2</ele>
        <time>2020-06-13T22:06:54Z</time>
      </trkpt>
      <trkpt lat="49.93512" lon="3.23466">
        <ele>103.1</ele>
        <time>2020-06-13T22:07:07Z</time>
      </trkpt>
      <trkpt lat="49.93474" lon="3.23424">
        <ele>105.7</ele>
        <time>2020-06-13T22:07:09Z</time>
      </trkpt>
      <trkpt lat="49.93399" lon="3.2328">
        <ele>106.5</ele>
        <time>2020-06-13T22:07:12Z</time>
      </trkpt>
      <trkpt lat="49.93343" lon="3.23179">
        <ele>109.3</ele>
        <time>2020-06-13T22:07:19Z</time>
      </trkpt>
      <trkpt lat="49.93295" lon="3.23083">
        <ele>114.7</ele>
        <time>2020-06-13T22:07:33Z</time>
      </trkpt>
      <trkpt lat="49.93251" lon="3.2301">
        <ele>118.9</ele>
        <time>2020-06-13T22:07:35Z</time>
      </trkpt>
      <trkpt lat="49.93212" lon="3.22956">
        <ele>120.6</ele>
        <time>2020-06-13T22:07:52Z</time>
      </trkpt>
      <trkpt lat="49.93132" lon="3.23237">
        <ele>115.2</ele>
        <time>2020-06-13T22:07:57Z</time>
      </trkpt>
      <trkpt lat="49.93105" lon="3.23308">
        <ele>114.3</ele>
        <time>2020-06-13T22:08:03Z</time>
      </trkpt>
      <trkpt lat="49.93069" lon="3.2334">
        <ele>113.5</ele>
        <time>2020-06-13T22:08:05Z</time>
      </trkpt>
      <trkpt lat="49.92964" lon="3.23383">
        <ele>109.6</ele>
        <time>2020-06-13T22:08:12Z</time>
      </trkpt>
      <trkpt lat="49.92821" lon="3.2345">
        <ele>101.9</ele>
        <time>2020-06-13T22:08:31Z</time>
      </trkpt>
      <trkpt lat="49.92719" lon="3.2351">
        <ele>95.7</ele>
        <time>2020-06-13T22:08:49Z</time>
      </trkpt>
      <trkpt lat="49.92643" lon="3.23568">
        <ele>93.8</ele>
        <time>2020-06-13T22:09:07Z</time>
      </trkpt>
      <trkpt lat="49.92567" lon="3.23626">
        <ele>91.6</ele>
        <time>2020-06-13T22:09:12Z</time>
      </trkpt>
      <trkpt lat="49.92534" lon="3.23657">
        <ele>90.5</ele>
        <time>2020-06-13T22:09:23Z</time>
      </trkpt>
      <trkpt lat="49.92512" lon="3.23693">
        <ele>89.6</ele>
        <time>2020-06-13T22:09:42Z</time>
      </trkpt>
      <trkpt lat="49.92492" lon="3.23734">
        <ele>88.3</ele>
        <time>2020-06-13T22:09:59Z</time>
      </trkpt>
      <trkpt lat="49.9247" lon="3.23794">
        <ele>86.3</ele>
        <time>2020-06-13T22:10:07Z</time>
      </trkpt>
      <trkpt lat="49.92452" lon="3.2382">
        <ele>85.1</ele>
        <time>2020-06-13T22:10:13Z</time>
      </trkpt>
      <trkpt lat="49.92397" lon="3.23919">
        <ele>82.7</ele>
        <time>2020-06-13T22:10:29Z</time>
      </trkpt>
      <trkpt lat="49.92336" lon="3.24009">
        <ele>83.2</ele>
        <time>2020-06-13T22:10:43Z</time>
      </trkpt>
      <trkpt lat="49.92315" lon="3.24041">
        <ele>84.1</ele>
        <time>2020-06-13T22:10:47Z</time>
      </trkpt>
      <trkpt lat="49.92293" lon="3.24052">
        <ele>84.5</ele>
        <time>2020-06-13T22:10:55Z</time>
      </trkpt>
      <trkpt lat="49.92292" lon="3.24073">
        <ele>85.2</ele>
        <time>2020-06-13T22:11:05Z</time>
      </trkpt>
      <trkpt lat="49.9235" lon="3.24106">
        <ele>85</ele>
        <time>2020-06-13T22:11:22Z</time>
      </trkpt>
      <trkpt lat="49.92415" lon="3.24153">
        <ele>85.5</ele>
        <time>2020-06-13T22:11:26Z</time>
      </trkpt>
      <trkpt lat="49.92438" lon="3.24176">
        <ele>85.5</ele>
        <time>2020-06-13T22:11:39Z</time>
      </trkpt>
      <trkpt lat="49.92489" lon="3.24181">
        <ele>83.7</ele>
        <time>2020-06-13T22:11:57Z</time>
      </trkpt>
      <trkpt lat="49.92531" lon="3.24226">
        <ele>84.8</ele>
        <time>2020-06-13T22:12:08Z</time>
      </trkpt>
      <trkpt lat="49.92548" lon="3.24256">
        <ele>85.7</ele>
        <time>2020-06-13T22:12:28Z</time>
      </trkpt>
      <trkpt lat="49.92628" lon="3.24308">
        <ele>86.5</ele>
        <time>2020-06-13T22:12:46Z</time>
      </trkpt>
      <trkpt lat="49.92736" lon="3.24385">
        <ele>87.6</ele>
        <time>2020-06-13T22:12:57Z</time>
      </trkpt>
      <trkpt lat="49.92859" lon="3.2447">
        <ele>87.8</ele>
        <time>2020-06-13T22:13:02Z</time>
      </trkpt>
      <trkpt lat="49.92939" lon="3.24526">
        <ele>87.6</ele>
        <time>2020-06-13T22:13:22Z</time>
      </trkpt>
      <trkpt lat="49.93015" lon="3.24575">
        <ele>88.9</ele>
        <time>2020-06-13T22:13:40Z</time>
      </trkpt>
      <trkpt lat="49.9308" lon="3.24595">
        <ele>88.9</ele>
        <time>2020-06-13T22:13:43Z</time>
      </trkpt>
      <trkpt lat="49.93128" lon="3.2459">
        <ele>88.5</ele>
        <time>2020-06-13T22:13:50Z</time>
      </trkpt>
      <trkpt lat="49.93242" lon="3.24545">
        <ele>89.3</ele>
        <time>2020-06-13T22:14:02Z</time>
      </trkpt>
      <trkpt lat="49.93374" lon="3.24487">
        <ele>91.3</ele>
        <time>2020-06-13T22:14:10Z</time>
      </trkpt>
      <trkpt lat="49.93494" lon="3.24436">
        <ele>95.2</ele>
        <time>2020-06-13T22:14:27Z</time>
      </trkpt>
      <trkpt lat="49.93628" lon="3.24376">
        <ele>92.7</ele>
        <time>2020-06-13T22:14:42Z</time>
      </trkpt>
      <trkpt lat="49.9376" lon="3.2432">
        <ele>93.4</ele>
        <time>2020-06-13T22:14:44Z</time>
      </trkpt>
      <trkpt lat="49.93847" lon="3.24282">
        <ele>96.4</ele>
        <time>2020-06-13T22:14:50Z</time>
      </trkpt>
      <trkpt lat="49.9393" lon="3.24245">
        <ele>98.8</ele>
        <time>2020-06-13T22:14:59Z</time>
      </trkpt>
      <trkpt lat="49.93979" lon="3.24199">
        <ele>98.8</ele>
        <time>2020-06-13T22:15:08Z</time>
      </trkpt>
      <trkpt lat="49.94005" lon="3.2424">
        <ele>95.5</ele>
        <time>2020-06-13T22:15:13Z</time>
      </trkpt>
      <trkpt lat="49.94057" lon="3.24175">
        <ele>98.5</ele>
        <time>2020-06-13T22:15:17Z</time>
      </trkpt>
      <trkpt lat="49.94088" lon="3.24139">
        <ele>99.2</ele>
        <time>2020-06-13T22:15:26Z</time>
      </trkpt>
      <trkpt lat="49.94123" lon="3.24094">
        <ele>101.2</ele>
        <time>2020-06-13T22:15:46Z</time>
      </trkpt>
      <trkpt lat="49.94166" lon="3.24053">
        <ele>102.2</ele>
        <time>2020-06-13T22:16:03Z</time>
      </trkpt>
      <trkpt lat="49.94226" lon="3.24003">
        <ele>101.4</ele>
        <time>2020-06-13T22:16:05Z</time>
      </trkpt>
      <trkpt lat="49.9428" lon="3.23971">
        <ele>101.5</ele>
        <time>2020-06-13T22:16:23Z</time>
      </trkpt>
      <trkpt lat="49.94379" lon="3.23954">
        <ele>101.9</ele>
        <time>2020-06-13T22:16:37Z</time>
      </trkpt>
      <trkpt lat="49.94489" lon="3.2395">
        <ele>103.6</ele>
        <time>2020-06-13T22:16:44Z</time>
      </trkpt>
      <trkpt lat="49.94583" lon="3.23937">
        <ele>102.7</ele>
        <time>2020-06-13T22:16:59Z</time>
      </trkpt>
      <trkpt lat="49.94643" lon="3.2391">
        <ele>102.6</ele>
        <time>2020-06-13T22:17:12Z</time>
      </trkpt>
      <trkpt lat="49.94727" lon="3.23854">
        <ele>101.9</ele>
        <time>2020-06-13T22:17:25Z</time>
      </trkpt>
      <trkpt lat="49.94799" lon="3.23798">
        <ele>102.8</ele>
        <time>2020-06-13T22:17:43Z</time>
      </trkpt>
      <trkpt lat="49.94884" lon="3.23727">
        <ele>104</ele>
        <time>2020-06-13T22:17:57Z</time>
      </trkpt>
      <trkpt lat="49.94962" lon="3.23668">
        <ele>100.2</ele>
        <time>2020-06-13T22:18:05Z</time>
      </trkpt>
      <trkpt lat="49.95015" lon="3.23632">
        <ele>102.3</ele>
        <time>2020-06-13T22:18:21Z</time>
      </trkpt>
      <trkpt lat="49.95053" lon="3.23626">
        <ele>104.6</ele>
        <time>2020-06-13T22:18:41Z</time>
      </trkpt>
      <trkpt lat="49.95084" lon="3.23632">
        <ele>106.4</ele>
        <time>2020-06-13T22:18:52Z</time>
      </trkpt>
      <trkpt lat="49.951" lon="3.23618">
        <ele>107.1</ele>
        <time>2020-06-13T22:19:02Z</time>
      </trkpt>
      <trkpt lat="49.95103" lon="3.23578">
        <ele>107.4</ele>
        <time>2020-06-13T22:19:21Z</time>
      </trkpt>
      <trkpt lat="49.951" lon="3.23526">
        <ele>107</ele>
        <time>2020-06-13T22:19:27Z</time>
      </trkpt>
      <trkpt lat="49.95098" lon="3.23479">
        <ele>106.3</ele>
        <time>2020-06-13T22:19:31Z</time>
      </trkpt>
      <trkpt lat="49.95125" lon="3.23485">
        <ele>106.1</ele>
        <time>2020-06-13T22:19:33Z</time>
      </trkpt>
      <trkpt lat="49.9513" lon="3.2351">
        <ele>106.6</ele>
        <time>2020-06-13T22:19:40Z</time>
      </trkpt>
    </trkseg>
  </trk>
</gpx>